sensor_id;sensor_type;location;lat;lon;timestamp;temperature;humidity
4518;DHT22;2271;49.464;11.070;2024-02-21T00:00:45;9.20;99.90
4518;DHT22;2271;49.464;11.070;2024-02-21T00:03:11;9.20;99.90
4518;DHT22;2271;49.464;11.070;2024-02-21T00:05:37;9.20;99.90
4518;DHT22;2271;49.464;11.070;2024-02-21T00:08:02;9.20;99.90
4518;DHT22;2271;49.464;11.070;2024-02-21T00:10:28;9.30;99.90
4518;DHT22;2271;49.464;11.070;2024-02-21T00:12:54;9.30;99.90
4518;DHT22;2271;49.464;11.070;2024-02-21T00:15:20;9.30;99.90
4518;DHT22;2271;49.464;11.070;2024-02-21T00:17:46;9.30;99.90
4518;DHT22;2271;49.464;11.070;2024-02-21T00:20:13;9.30;99.90
4518;DHT22;2271;49.464;11.070;2024-02-21T00:22:39;9.30;99.90
4518;DHT22;2271;49.464;11.070;2024-02-21T00:25:04;9.30;99.90
4518;DHT22;2271;49.464;11.070;2024-02-21T00:27:30;9.30;99.90
4518;DHT22;2271;49.464;11.070;2024-02-21T00:29:57;9.30;99.90
4518;DHT22;2271;49.464;11.070;2024-02-21T00:32:23;9.30;99.90
4518;DHT22;2271;49.464;11.070;2024-02-21T00:34:48;9.40;99.90
4518;DHT22;2271;49.464;11.070;2024-02-21T00:37:14;9.40;99.90
4518;DHT22;2271;49.464;11.070;2024-02-21T00:39:40;9.30;99.90
4518;DHT22;2271;49.464;11.070;2024-02-21T00:42:05;9.30;99.90
4518;DHT22;2271;49.464;11.070;2024-02-21T00:44:32;9.30;99.90
4518;DHT22;2271;49.464;11.070;2024-02-21T00:46:58;9.30;99.90
4518;DHT22;2271;49.464;11.070;2024-02-21T00:49:23;9.30;99.90
4518;DHT22;2271;49.464;11.070;2024-02-21T00:51:49;9.40;99.90
4518;DHT22;2271;49.464;11.070;2024-02-21T00:54:15;9.40;99.90
4518;DHT22;2271;49.464;11.070;2024-02-21T00:56:42;9.40;99.90
4518;DHT22;2271;49.464;11.070;2024-02-21T00:59:08;9.30;99.90
4518;DHT22;2271;49.464;11.070;2024-02-21T01:01:33;9.30;99.90
4518;DHT22;2271;49.464;11.070;2024-02-21T01:03:59;9.30;99.90
4518;DHT22;2271;49.464;11.070;2024-02-21T01:06:26;9.20;99.90
4518;DHT22;2271;49.464;11.070;2024-02-21T01:08:52;9.20;99.90
4518;DHT22;2271;49.464;11.070;2024-02-21T01:11:18;9.30;99.90
4518;DHT22;2271;49.464;11.070;2024-02-21T01:13:44;9.30;99.90
4518;DHT22;2271;49.464;11.070;2024-02-21T01:16:09;9.30;99.90
4518;DHT22;2271;49.464;11.070;2024-02-21T01:18:37;9.30;99.90
4518;DHT22;2271;49.464;11.070;2024-02-21T01:21:03;9.20;99.90
4518;DHT22;2271;49.464;11.070;2024-02-21T01:23:35;9.20;99.90
4518;DHT22;2271;49.464;11.070;2024-02-21T01:26:01;9.20;99.90
4518;DHT22;2271;49.464;11.070;2024-02-21T01:28:26;9.20;99.90
4518;DHT22;2271;49.464;11.070;2024-02-21T01:30:52;9.20;99.90
4518;DHT22;2271;49.464;11.070;2024-02-21T01:33:17;9.20;99.90
4518;DHT22;2271;49.464;11.070;2024-02-21T01:35:43;9.10;99.90
4518;DHT22;2271;49.464;11.070;2024-02-21T01:38:09;9.10;99.90
4518;DHT22;2271;49.464;11.070;2024-02-21T01:40:35;9.10;99.90
4518;DHT22;2271;49.464;11.070;2024-02-21T01:43:02;9.10;99.90
4518;DHT22;2271;49.464;11.070;2024-02-21T01:45:28;9.10;99.90
4518;DHT22;2271;49.464;11.070;2024-02-21T01:47:54;9.00;99.90
4518;DHT22;2271;49.464;11.070;2024-02-21T01:50:20;9.00;99.90
4518;DHT22;2271;49.464;11.070;2024-02-21T01:52:49;9.00;99.90
4518;DHT22;2271;49.464;11.070;2024-02-21T01:55:16;9.10;99.90
4518;DHT22;2271;49.464;11.070;2024-02-21T01:57:43;9.10;99.90
4518;DHT22;2271;49.464;11.070;2024-02-21T02:00:12;9.10;99.90
4518;DHT22;2271;49.464;11.070;2024-02-21T02:02:38;9.10;99.90
4518;DHT22;2271;49.464;11.070;2024-02-21T02:05:05;9.10;99.90
4518;DHT22;2271;49.464;11.070;2024-02-21T02:07:31;9.10;99.90
4518;DHT22;2271;49.464;11.070;2024-02-21T02:09:57;9.10;99.90
4518;DHT22;2271;49.464;11.070;2024-02-21T02:12:23;9.00;99.90
4518;DHT22;2271;49.464;11.070;2024-02-21T02:15:00;9.00;99.90
4518;DHT22;2271;49.464;11.070;2024-02-21T02:17:25;9.10;99.90
4518;DHT22;2271;49.464;11.070;2024-02-21T02:19:51;9.10;99.90
4518;DHT22;2271;49.464;11.070;2024-02-21T02:22:27;9.00;99.90
4518;DHT22;2271;49.464;11.070;2024-02-21T02:24:53;9.10;99.90
4518;DHT22;2271;49.464;11.070;2024-02-21T02:27:19;9.10;99.90
4518;DHT22;2271;49.464;11.070;2024-02-21T02:29:45;9.10;99.90
4518;DHT22;2271;49.464;11.070;2024-02-21T02:32:11;9.10;99.90
4518;DHT22;2271;49.464;11.070;2024-02-21T02:34:36;9.10;99.90
4518;DHT22;2271;49.464;11.070;2024-02-21T02:37:02;9.10;99.90
4518;DHT22;2271;49.464;11.070;2024-02-21T02:39:28;9.10;99.90
4518;DHT22;2271;49.464;11.070;2024-02-21T02:41:53;9.10;99.90
4518;DHT22;2271;49.464;11.070;2024-02-21T02:44:19;9.10;99.90
4518;DHT22;2271;49.464;11.070;2024-02-21T02:46:44;9.10;99.90
4518;DHT22;2271;49.464;11.070;2024-02-21T02:49:10;9.10;99.90
4518;DHT22;2271;49.464;11.070;2024-02-21T02:51:36;9.10;99.90
4518;DHT22;2271;49.464;11.070;2024-02-21T02:54:02;9.00;99.90
4518;DHT22;2271;49.464;11.070;2024-02-21T02:56:28;9.00;99.90
4518;DHT22;2271;49.464;11.070;2024-02-21T02:58:53;9.00;99.90
4518;DHT22;2271;49.464;11.070;2024-02-21T03:01:19;8.90;99.90
4518;DHT22;2271;49.464;11.070;2024-02-21T03:03:45;8.90;99.90
4518;DHT22;2271;49.464;11.070;2024-02-21T03:06:12;8.90;99.90
4518;DHT22;2271;49.464;11.070;2024-02-21T03:08:38;9.00;99.90
4518;DHT22;2271;49.464;11.070;2024-02-21T03:11:05;9.00;99.90
4518;DHT22;2271;49.464;11.070;2024-02-21T03:13:30;9.00;99.90
4518;DHT22;2271;49.464;11.070;2024-02-21T03:15:56;9.00;99.90
4518;DHT22;2271;49.464;11.070;2024-02-21T03:18:22;9.00;99.90
4518;DHT22;2271;49.464;11.070;2024-02-21T03:20:47;9.10;99.90
4518;DHT22;2271;49.464;11.070;2024-02-21T03:23:13;9.10;99.90
4518;DHT22;2271;49.464;11.070;2024-02-21T03:25:39;9.10;99.90
4518;DHT22;2271;49.464;11.070;2024-02-21T03:28:04;9.10;99.90
4518;DHT22;2271;49.464;11.070;2024-02-21T03:30:30;9.10;99.90
4518;DHT22;2271;49.464;11.070;2024-02-21T03:32:56;9.10;99.90
4518;DHT22;2271;49.464;11.070;2024-02-21T03:35:21;9.10;99.90
4518;DHT22;2271;49.464;11.070;2024-02-21T03:37:47;9.10;99.90
4518;DHT22;2271;49.464;11.070;2024-02-21T03:40:12;9.10;99.90
4518;DHT22;2271;49.464;11.070;2024-02-21T03:42:38;9.10;99.90
4518;DHT22;2271;49.464;11.070;2024-02-21T03:45:04;9.00;99.90
4518;DHT22;2271;49.464;11.070;2024-02-21T03:47:30;9.00;99.90
4518;DHT22;2271;49.464;11.070;2024-02-21T03:49:55;9.00;99.90
4518;DHT22;2271;49.464;11.070;2024-02-21T03:52:21;9.00;99.90
4518;DHT22;2271;49.464;11.070;2024-02-21T03:54:47;9.10;99.90
4518;DHT22;2271;49.464;11.070;2024-02-21T03:57:13;9.10;99.90
4518;DHT22;2271;49.464;11.070;2024-02-21T03:59:38;9.10;99.90
4518;DHT22;2271;49.464;11.070;2024-02-21T04:02:05;9.10;99.90
4518;DHT22;2271;49.464;11.070;2024-02-21T04:04:34;9.20;99.90
4518;DHT22;2271;49.464;11.070;2024-02-21T04:07:02;9.20;99.90
4518;DHT22;2271;49.464;11.070;2024-02-21T04:09:32;9.20;99.90
4518;DHT22;2271;49.464;11.070;2024-02-21T04:11:59;9.10;99.90
4518;DHT22;2271;49.464;11.070;2024-02-21T04:14:25;9.10;99.90
4518;DHT22;2271;49.464;11.070;2024-02-21T04:16:50;9.10;99.90
4518;DHT22;2271;49.464;11.070;2024-02-21T04:19:16;9.10;99.90
4518;DHT22;2271;49.464;11.070;2024-02-21T04:21:42;9.10;99.90
4518;DHT22;2271;49.464;11.070;2024-02-21T04:24:07;9.00;99.90
4518;DHT22;2271;49.464;11.070;2024-02-21T04:26:33;9.10;99.90
4518;DHT22;2271;49.464;11.070;2024-02-21T04:28:59;9.10;99.90
4518;DHT22;2271;49.464;11.070;2024-02-21T04:31:25;9.10;99.90
4518;DHT22;2271;49.464;11.070;2024-02-21T04:33:50;9.10;99.90
4518;DHT22;2271;49.464;11.070;2024-02-21T04:36:16;9.10;99.90
4518;DHT22;2271;49.464;11.070;2024-02-21T04:38:41;9.10;99.90
4518;DHT22;2271;49.464;11.070;2024-02-21T04:41:07;9.00;99.90
4518;DHT22;2271;49.464;11.070;2024-02-21T04:43:33;9.00;99.90
4518;DHT22;2271;49.464;11.070;2024-02-21T04:45:59;9.00;99.90
4518;DHT22;2271;49.464;11.070;2024-02-21T04:48:25;9.00;99.90
4518;DHT22;2271;49.464;11.070;2024-02-21T04:50:51;9.50;99.90
4518;DHT22;2271;49.464;11.070;2024-02-21T04:53:17;10.10;99.90
4518;DHT22;2271;49.464;11.070;2024-02-21T04:55:42;10.70;99.90
4518;DHT22;2271;49.464;11.070;2024-02-21T04:58:08;10.90;99.90
4518;DHT22;2271;49.464;11.070;2024-02-21T05:00:34;10.50;99.90
4518;DHT22;2271;49.464;11.070;2024-02-21T05:03:00;10.10;99.90
4518;DHT22;2271;49.464;11.070;2024-02-21T05:05:25;9.70;99.90
4518;DHT22;2271;49.464;11.070;2024-02-21T05:07:51;9.50;99.90
4518;DHT22;2271;49.464;11.070;2024-02-21T05:10:16;9.40;99.90
4518;DHT22;2271;49.464;11.070;2024-02-21T05:12:43;9.30;99.90
4518;DHT22;2271;49.464;11.070;2024-02-21T05:15:08;9.20;99.90
4518;DHT22;2271;49.464;11.070;2024-02-21T05:17:34;9.20;99.90
4518;DHT22;2271;49.464;11.070;2024-02-21T05:20:00;9.10;99.90
4518;DHT22;2271;49.464;11.070;2024-02-21T05:22:25;9.00;99.90
4518;DHT22;2271;49.464;11.070;2024-02-21T05:24:51;9.00;99.90
4518;DHT22;2271;49.464;11.070;2024-02-21T05:27:16;9.00;99.90
4518;DHT22;2271;49.464;11.070;2024-02-21T05:29:42;9.00;99.90
4518;DHT22;2271;49.464;11.070;2024-02-21T05:32:07;9.00;99.90
4518;DHT22;2271;49.464;11.070;2024-02-21T05:34:33;9.00;99.90
4518;DHT22;2271;49.464;11.070;2024-02-21T05:36:59;9.00;99.90
4518;DHT22;2271;49.464;11.070;2024-02-21T05:39:26;9.00;99.90
4518;DHT22;2271;49.464;11.070;2024-02-21T05:41:52;8.90;99.90
4518;DHT22;2271;49.464;11.070;2024-02-21T05:44:18;8.90;99.90
4518;DHT22;2271;49.464;11.070;2024-02-21T05:46:43;8.90;99.90
4518;DHT22;2271;49.464;11.070;2024-02-21T05:49:09;8.90;99.90
4518;DHT22;2271;49.464;11.070;2024-02-21T05:51:35;8.90;99.90
4518;DHT22;2271;49.464;11.070;2024-02-21T05:54:01;8.90;99.90
4518;DHT22;2271;49.464;11.070;2024-02-21T05:56:27;8.90;99.90
4518;DHT22;2271;49.464;11.070;2024-02-21T05:58:52;8.80;99.90
4518;DHT22;2271;49.464;11.070;2024-02-21T06:01:18;8.80;99.90
4518;DHT22;2271;49.464;11.070;2024-02-21T06:03:44;8.80;99.90
4518;DHT22;2271;49.464;11.070;2024-02-21T06:06:09;8.80;99.90
4518;DHT22;2271;49.464;11.070;2024-02-21T06:08:35;8.80;99.90
4518;DHT22;2271;49.464;11.070;2024-02-21T06:11:01;8.80;99.90
4518;DHT22;2271;49.464;11.070;2024-02-21T06:13:27;8.80;99.90
4518;DHT22;2271;49.464;11.070;2024-02-21T06:15:53;8.80;99.90
4518;DHT22;2271;49.464;11.070;2024-02-21T06:18:19;8.70;99.90
4518;DHT22;2271;49.464;11.070;2024-02-21T06:20:45;8.70;99.90
4518;DHT22;2271;49.464;11.070;2024-02-21T06:23:12;8.70;99.90
4518;DHT22;2271;49.464;11.070;2024-02-21T06:25:38;8.70;99.90
4518;DHT22;2271;49.464;11.070;2024-02-21T06:28:04;8.70;99.90
4518;DHT22;2271;49.464;11.070;2024-02-21T06:30:30;8.70;99.90
4518;DHT22;2271;49.464;11.070;2024-02-21T06:32:56;8.70;99.90
4518;DHT22;2271;49.464;11.070;2024-02-21T06:35:22;8.70;99.90
4518;DHT22;2271;49.464;11.070;2024-02-21T06:37:50;8.70;99.90
4518;DHT22;2271;49.464;11.070;2024-02-21T06:40:17;8.70;99.90
4518;DHT22;2271;49.464;11.070;2024-02-21T06:42:43;8.70;99.90
4518;DHT22;2271;49.464;11.070;2024-02-21T06:45:08;8.70;99.90
4518;DHT22;2271;49.464;11.070;2024-02-21T06:47:34;8.70;99.90
4518;DHT22;2271;49.464;11.070;2024-02-21T06:50:00;8.70;99.90
4518;DHT22;2271;49.464;11.070;2024-02-21T06:52:25;8.70;99.90
4518;DHT22;2271;49.464;11.070;2024-02-21T06:54:52;8.70;99.90
4518;DHT22;2271;49.464;11.070;2024-02-21T06:57:17;8.70;99.90
4518;DHT22;2271;49.464;11.070;2024-02-21T06:59:43;8.70;99.90
4518;DHT22;2271;49.464;11.070;2024-02-21T07:02:09;8.80;99.90
4518;DHT22;2271;49.464;11.070;2024-02-21T07:04:34;8.90;99.90
4518;DHT22;2271;49.464;11.070;2024-02-21T07:07:00;8.90;99.90
4518;DHT22;2271;49.464;11.070;2024-02-21T07:09:26;9.00;99.90
4518;DHT22;2271;49.464;11.070;2024-02-21T07:11:54;9.00;99.90
4518;DHT22;2271;49.464;11.070;2024-02-21T07:14:19;9.00;99.90
4518;DHT22;2271;49.464;11.070;2024-02-21T07:16:45;9.00;99.90
4518;DHT22;2271;49.464;11.070;2024-02-21T07:19:10;9.00;99.90
4518;DHT22;2271;49.464;11.070;2024-02-21T07:21:36;9.10;99.90
4518;DHT22;2271;49.464;11.070;2024-02-21T07:24:04;9.10;99.90
4518;DHT22;2271;49.464;11.070;2024-02-21T07:26:31;9.20;99.90
4518;DHT22;2271;49.464;11.070;2024-02-21T07:28:56;9.20;99.90
4518;DHT22;2271;49.464;11.070;2024-02-21T07:31:22;9.20;99.90
4518;DHT22;2271;49.464;11.070;2024-02-21T07:33:48;9.20;99.90
4518;DHT22;2271;49.464;11.070;2024-02-21T07:36:15;9.20;99.90
4518;DHT22;2271;49.464;11.070;2024-02-21T07:38:41;9.30;99.90
4518;DHT22;2271;49.464;11.070;2024-02-21T07:41:07;9.40;99.90
4518;DHT22;2271;49.464;11.070;2024-02-21T07:43:33;9.50;99.90
4518;DHT22;2271;49.464;11.070;2024-02-21T07:45:58;9.50;99.90
4518;DHT22;2271;49.464;11.070;2024-02-21T07:48:24;9.50;99.90
4518;DHT22;2271;49.464;11.070;2024-02-21T07:50:52;9.60;99.90
4518;DHT22;2271;49.464;11.070;2024-02-21T07:53:19;9.60;99.90
4518;DHT22;2271;49.464;11.070;2024-02-21T07:55:45;9.70;99.90
4518;DHT22;2271;49.464;11.070;2024-02-21T07:58:10;9.80;99.90
4518;DHT22;2271;49.464;11.070;2024-02-21T08:00:36;9.80;99.90
4518;DHT22;2271;49.464;11.070;2024-02-21T08:03:03;9.70;99.90
4518;DHT22;2271;49.464;11.070;2024-02-21T08:05:29;9.70;99.90
4518;DHT22;2271;49.464;11.070;2024-02-21T08:07:55;9.70;99.90
4518;DHT22;2271;49.464;11.070;2024-02-21T08:10:21;9.80;99.90
4518;DHT22;2271;49.464;11.070;2024-02-21T08:12:46;9.80;99.90
4518;DHT22;2271;49.464;11.070;2024-02-21T08:15:12;9.80;99.90
4518;DHT22;2271;49.464;11.070;2024-02-21T08:17:38;9.90;99.90
4518;DHT22;2271;49.464;11.070;2024-02-21T08:20:06;9.90;99.90
4518;DHT22;2271;49.464;11.070;2024-02-21T08:22:32;9.90;99.90
4518;DHT22;2271;49.464;11.070;2024-02-21T08:24:58;9.90;99.90
4518;DHT22;2271;49.464;11.070;2024-02-21T08:27:23;10.00;99.90
4518;DHT22;2271;49.464;11.070;2024-02-21T08:29:49;10.00;99.90
4518;DHT22;2271;49.464;11.070;2024-02-21T08:32:14;10.10;99.90
4518;DHT22;2271;49.464;11.070;2024-02-21T08:34:40;10.10;99.90
4518;DHT22;2271;49.464;11.070;2024-02-21T08:37:06;10.20;99.90
4518;DHT22;2271;49.464;11.070;2024-02-21T08:39:31;10.30;99.90
4518;DHT22;2271;49.464;11.070;2024-02-21T08:41:57;10.40;99.90
4518;DHT22;2271;49.464;11.070;2024-02-21T08:44:23;10.40;99.90
4518;DHT22;2271;49.464;11.070;2024-02-21T08:46:51;10.30;99.90
4518;DHT22;2271;49.464;11.070;2024-02-21T08:49:16;10.30;99.90
4518;DHT22;2271;49.464;11.070;2024-02-21T08:51:42;10.30;99.90
4518;DHT22;2271;49.464;11.070;2024-02-21T08:54:08;10.40;99.90
4518;DHT22;2271;49.464;11.070;2024-02-21T08:56:34;10.50;99.90
4518;DHT22;2271;49.464;11.070;2024-02-21T08:59:01;10.50;99.90
4518;DHT22;2271;49.464;11.070;2024-02-21T09:01:27;10.50;99.90
4518;DHT22;2271;49.464;11.070;2024-02-21T09:03:52;10.50;99.90
4518;DHT22;2271;49.464;11.070;2024-02-21T09:06:19;10.60;99.90
4518;DHT22;2271;49.464;11.070;2024-02-21T09:08:48;10.70;99.90
4518;DHT22;2271;49.464;11.070;2024-02-21T09:11:13;10.70;99.90
4518;DHT22;2271;49.464;11.070;2024-02-21T09:13:39;10.60;99.90
4518;DHT22;2271;49.464;11.070;2024-02-21T09:16:05;10.60;99.90
4518;DHT22;2271;49.464;11.070;2024-02-21T09:18:31;10.60;99.90
4518;DHT22;2271;49.464;11.070;2024-02-21T09:20:57;10.60;99.90
4518;DHT22;2271;49.464;11.070;2024-02-21T09:23:25;10.60;99.90
4518;DHT22;2271;49.464;11.070;2024-02-21T09:25:51;10.60;99.90
4518;DHT22;2271;49.464;11.070;2024-02-21T09:28:17;10.60;99.90
4518;DHT22;2271;49.464;11.070;2024-02-21T09:30:42;10.60;99.90
4518;DHT22;2271;49.464;11.070;2024-02-21T09:33:08;10.70;99.90
4518;DHT22;2271;49.464;11.070;2024-02-21T09:35:34;10.70;99.90
4518;DHT22;2271;49.464;11.070;2024-02-21T09:38:01;10.70;99.90
4518;DHT22;2271;49.464;11.070;2024-02-21T09:40:27;10.80;99.90
4518;DHT22;2271;49.464;11.070;2024-02-21T09:43:02;10.80;99.90
4518;DHT22;2271;49.464;11.070;2024-02-21T09:45:30;10.80;99.90
4518;DHT22;2271;49.464;11.070;2024-02-21T09:50:24;11.00;99.90
4518;DHT22;2271;49.464;11.070;2024-02-21T09:52:52;11.10;99.90
4518;DHT22;2271;49.464;11.070;2024-02-21T09:55:19;11.20;99.90
4518;DHT22;2271;49.464;11.070;2024-02-21T09:57:45;11.20;99.90
4518;DHT22;2271;49.464;11.070;2024-02-21T10:00:11;11.30;99.90
4518;DHT22;2271;49.464;11.070;2024-02-21T10:02:39;11.20;99.90
4518;DHT22;2271;49.464;11.070;2024-02-21T10:05:05;11.10;99.90
4518;DHT22;2271;49.464;11.070;2024-02-21T10:07:33;11.10;99.90
4518;DHT22;2271;49.464;11.070;2024-02-21T10:10:05;11.00;99.90
4518;DHT22;2271;49.464;11.070;2024-02-21T10:12:31;11.00;99.90
4518;DHT22;2271;49.464;11.070;2024-02-21T10:15:04;11.00;99.90
4518;DHT22;2271;49.464;11.070;2024-02-21T10:17:30;11.00;99.90
4518;DHT22;2271;49.464;11.070;2024-02-21T10:20:07;11.10;99.90
4518;DHT22;2271;49.464;11.070;2024-02-21T10:22:33;11.00;99.90
4518;DHT22;2271;49.464;11.070;2024-02-21T10:25:11;11.10;99.90
4518;DHT22;2271;49.464;11.070;2024-02-21T10:27:38;11.20;99.90
4518;DHT22;2271;49.464;11.070;2024-02-21T10:30:06;11.20;99.90
4518;DHT22;2271;49.464;11.070;2024-02-21T10:32:32;11.20;99.90
4518;DHT22;2271;49.464;11.070;2024-02-21T10:35:02;11.30;99.90
4518;DHT22;2271;49.464;11.070;2024-02-21T10:37:31;11.30;99.90
4518;DHT22;2271;49.464;11.070;2024-02-21T10:39:57;11.40;99.90
4518;DHT22;2271;49.464;11.070;2024-02-21T10:42:29;11.50;99.90
4518;DHT22;2271;49.464;11.070;2024-02-21T10:45:00;11.60;99.90
4518;DHT22;2271;49.464;11.070;2024-02-21T10:47:31;11.70;99.90
4518;DHT22;2271;49.464;11.070;2024-02-21T10:50:03;11.70;99.90
4518;DHT22;2271;49.464;11.070;2024-02-21T10:52:57;11.70;99.90
4518;DHT22;2271;49.464;11.070;2024-02-21T10:55:33;11.70;99.90
4518;DHT22;2271;49.464;11.070;2024-02-21T10:58:03;11.70;99.90
4518;DHT22;2271;49.464;11.070;2024-02-21T11:00:30;11.80;99.90
4518;DHT22;2271;49.464;11.070;2024-02-21T11:02:57;11.70;99.90
4518;DHT22;2271;49.464;11.070;2024-02-21T11:05:24;11.80;99.90
4518;DHT22;2271;49.464;11.070;2024-02-21T11:07:51;11.80;99.90
4518;DHT22;2271;49.464;11.070;2024-02-21T11:10:23;11.90;99.90
4518;DHT22;2271;49.464;11.070;2024-02-21T11:12:53;12.00;99.90
4518;DHT22;2271;49.464;11.070;2024-02-21T11:15:19;12.00;99.90
4518;DHT22;2271;49.464;11.070;2024-02-21T11:17:56;12.10;99.90
4518;DHT22;2271;49.464;11.070;2024-02-21T11:20:35;12.20;99.90
4518;DHT22;2271;49.464;11.070;2024-02-21T11:23:01;12.20;99.90
4518;DHT22;2271;49.464;11.070;2024-02-21T11:25:28;12.20;99.90
4518;DHT22;2271;49.464;11.070;2024-02-21T11:28:03;12.20;99.90
4518;DHT22;2271;49.464;11.070;2024-02-21T11:30:35;12.30;99.90
4518;DHT22;2271;49.464;11.070;2024-02-21T11:33:01;12.30;99.90
4518;DHT22;2271;49.464;11.070;2024-02-21T11:35:32;12.40;99.90
4518;DHT22;2271;49.464;11.070;2024-02-21T11:38:11;12.60;99.90
4518;DHT22;2271;49.464;11.070;2024-02-21T11:40:40;12.70;99.90
4518;DHT22;2271;49.464;11.070;2024-02-21T11:43:07;12.90;99.90
4518;DHT22;2271;49.464;11.070;2024-02-21T11:45:33;13.00;99.90
4518;DHT22;2271;49.464;11.070;2024-02-21T11:47:59;13.20;99.90
4518;DHT22;2271;49.464;11.070;2024-02-21T11:50:31;13.10;99.90
4518;DHT22;2271;49.464;11.070;2024-02-21T11:52:57;13.00;99.90
4518;DHT22;2271;49.464;11.070;2024-02-21T11:55:23;13.00;99.90
4518;DHT22;2271;49.464;11.070;2024-02-21T11:57:49;13.10;99.90
4518;DHT22;2271;49.464;11.070;2024-02-21T12:00:19;13.20;99.90
4518;DHT22;2271;49.464;11.070;2024-02-21T12:02:50;13.20;99.90
4518;DHT22;2271;49.464;11.070;2024-02-21T12:05:16;13.20;99.90
4518;DHT22;2271;49.464;11.070;2024-02-21T12:07:42;13.20;99.90
4518;DHT22;2271;49.464;11.070;2024-02-21T12:10:11;13.10;99.90
4518;DHT22;2271;49.464;11.070;2024-02-21T12:12:37;13.20;99.90
4518;DHT22;2271;49.464;11.070;2024-02-21T12:15:05;13.20;99.90
4518;DHT22;2271;49.464;11.070;2024-02-21T12:17:33;13.20;99.90
4518;DHT22;2271;49.464;11.070;2024-02-21T12:19:59;13.10;99.90
4518;DHT22;2271;49.464;11.070;2024-02-21T12:22:25;13.10;99.90
4518;DHT22;2271;49.464;11.070;2024-02-21T12:24:51;13.10;99.90
4518;DHT22;2271;49.464;11.070;2024-02-21T12:27:17;13.10;99.90
4518;DHT22;2271;49.464;11.070;2024-02-21T12:29:42;13.10;99.90
4518;DHT22;2271;49.464;11.070;2024-02-21T12:32:08;13.10;99.90
4518;DHT22;2271;49.464;11.070;2024-02-21T12:34:34;13.10;99.90
4518;DHT22;2271;49.464;11.070;2024-02-21T12:37:01;13.00;99.90
4518;DHT22;2271;49.464;11.070;2024-02-21T12:39:28;13.00;99.90
4518;DHT22;2271;49.464;11.070;2024-02-21T12:41:54;13.10;99.90
4518;DHT22;2271;49.464;11.070;2024-02-21T12:44:21;13.10;99.90
4518;DHT22;2271;49.464;11.070;2024-02-21T12:46:47;13.10;99.90
4518;DHT22;2271;49.464;11.070;2024-02-21T12:49:17;13.20;99.90
4518;DHT22;2271;49.464;11.070;2024-02-21T12:51:43;13.20;99.90
4518;DHT22;2271;49.464;11.070;2024-02-21T12:54:09;13.20;99.90
4518;DHT22;2271;49.464;11.070;2024-02-21T12:56:36;13.20;99.90
4518;DHT22;2271;49.464;11.070;2024-02-21T12:59:03;13.20;99.90
4518;DHT22;2271;49.464;11.070;2024-02-21T13:01:29;13.20;99.90
4518;DHT22;2271;49.464;11.070;2024-02-21T13:03:54;13.20;99.90
4518;DHT22;2271;49.464;11.070;2024-02-21T13:06:21;13.10;99.90
4518;DHT22;2271;49.464;11.070;2024-02-21T13:08:47;13.10;99.90
4518;DHT22;2271;49.464;11.070;2024-02-21T13:11:13;13.10;99.90
4518;DHT22;2271;49.464;11.070;2024-02-21T13:13:38;13.10;99.90
4518;DHT22;2271;49.464;11.070;2024-02-21T13:16:04;13.20;99.90
4518;DHT22;2271;49.464;11.070;2024-02-21T13:18:30;13.30;99.90
4518;DHT22;2271;49.464;11.070;2024-02-21T13:20:58;13.30;99.90
4518;DHT22;2271;49.464;11.070;2024-02-21T13:23:23;13.30;99.90
4518;DHT22;2271;49.464;11.070;2024-02-21T13:25:49;13.20;99.90
4518;DHT22;2271;49.464;11.070;2024-02-21T13:28:16;13.20;99.90
4518;DHT22;2271;49.464;11.070;2024-02-21T13:30:42;13.20;99.90
4518;DHT22;2271;49.464;11.070;2024-02-21T13:33:08;13.10;99.90
4518;DHT22;2271;49.464;11.070;2024-02-21T13:35:35;13.10;99.90
4518;DHT22;2271;49.464;11.070;2024-02-21T13:38:02;13.10;99.90
4518;DHT22;2271;49.464;11.070;2024-02-21T13:40:28;13.10;99.90
4518;DHT22;2271;49.464;11.070;2024-02-21T13:42:54;13.10;99.90
4518;DHT22;2271;49.464;11.070;2024-02-21T13:45:20;13.10;99.90
4518;DHT22;2271;49.464;11.070;2024-02-21T13:47:46;13.10;99.90
4518;DHT22;2271;49.464;11.070;2024-02-21T13:50:11;13.10;99.90
4518;DHT22;2271;49.464;11.070;2024-02-21T13:52:42;13.00;99.90
4518;DHT22;2271;49.464;11.070;2024-02-21T13:55:08;13.00;99.90
4518;DHT22;2271;49.464;11.070;2024-02-21T13:57:38;13.00;99.90
4518;DHT22;2271;49.464;11.070;2024-02-21T14:00:04;13.00;99.90
4518;DHT22;2271;49.464;11.070;2024-02-21T14:02:30;13.00;99.90
4518;DHT22;2271;49.464;11.070;2024-02-21T14:04:56;13.00;99.90
4518;DHT22;2271;49.464;11.070;2024-02-21T14:07:22;12.90;99.90
4518;DHT22;2271;49.464;11.070;2024-02-21T14:09:47;13.00;99.90
4518;DHT22;2271;49.464;11.070;2024-02-21T14:12:13;13.00;99.90
4518;DHT22;2271;49.464;11.070;2024-02-21T14:14:39;13.00;99.90
4518;DHT22;2271;49.464;11.070;2024-02-21T14:17:05;13.00;99.90
4518;DHT22;2271;49.464;11.070;2024-02-21T14:19:30;13.00;99.90
4518;DHT22;2271;49.464;11.070;2024-02-21T14:21:56;12.90;99.90
4518;DHT22;2271;49.464;11.070;2024-02-21T14:24:23;12.90;99.90
4518;DHT22;2271;49.464;11.070;2024-02-21T14:26:48;12.90;99.90
4518;DHT22;2271;49.464;11.070;2024-02-21T14:29:14;12.90;99.90
4518;DHT22;2271;49.464;11.070;2024-02-21T14:31:40;12.90;99.90
4518;DHT22;2271;49.464;11.070;2024-02-21T14:34:09;12.80;99.90
4518;DHT22;2271;49.464;11.070;2024-02-21T14:36:35;12.80;99.90
4518;DHT22;2271;49.464;11.070;2024-02-21T14:39:01;12.80;99.90
4518;DHT22;2271;49.464;11.070;2024-02-21T14:41:26;12.80;99.90
4518;DHT22;2271;49.464;11.070;2024-02-21T14:43:53;12.80;99.90
4518;DHT22;2271;49.464;11.070;2024-02-21T14:46:18;12.80;99.90
4518;DHT22;2271;49.464;11.070;2024-02-21T14:48:44;12.70;99.90
4518;DHT22;2271;49.464;11.070;2024-02-21T14:51:10;12.70;99.90
4518;DHT22;2271;49.464;11.070;2024-02-21T14:53:36;12.70;99.90
4518;DHT22;2271;49.464;11.070;2024-02-21T14:56:02;12.70;99.90
4518;DHT22;2271;49.464;11.070;2024-02-21T14:58:28;12.70;99.90
4518;DHT22;2271;49.464;11.070;2024-02-21T15:00:53;12.70;99.90
4518;DHT22;2271;49.464;11.070;2024-02-21T15:03:19;12.60;99.90
4518;DHT22;2271;49.464;11.070;2024-02-21T15:05:46;12.60;99.90
4518;DHT22;2271;49.464;11.070;2024-02-21T15:08:12;12.60;99.90
4518;DHT22;2271;49.464;11.070;2024-02-21T15:10:42;12.60;99.90
4518;DHT22;2271;49.464;11.070;2024-02-21T15:13:08;12.60;99.90
4518;DHT22;2271;49.464;11.070;2024-02-21T15:15:33;12.50;99.90
4518;DHT22;2271;49.464;11.070;2024-02-21T15:17:59;12.50;99.90
4518;DHT22;2271;49.464;11.070;2024-02-21T15:20:24;12.50;99.90
4518;DHT22;2271;49.464;11.070;2024-02-21T15:22:50;12.50;99.90
4518;DHT22;2271;49.464;11.070;2024-02-21T15:25:16;12.40;99.90
4518;DHT22;2271;49.464;11.070;2024-02-21T15:27:44;12.40;99.90
4518;DHT22;2271;49.464;11.070;2024-02-21T15:30:11;12.50;99.90
4518;DHT22;2271;49.464;11.070;2024-02-21T15:32:37;12.40;99.90
4518;DHT22;2271;49.464;11.070;2024-02-21T15:35:04;12.40;99.90
4518;DHT22;2271;49.464;11.070;2024-02-21T15:37:31;12.40;99.90
4518;DHT22;2271;49.464;11.070;2024-02-21T15:39:58;12.40;99.90
4518;DHT22;2271;49.464;11.070;2024-02-21T15:42:23;12.40;99.90
4518;DHT22;2271;49.464;11.070;2024-02-21T15:44:49;12.40;99.90
4518;DHT22;2271;49.464;11.070;2024-02-21T15:47:15;12.30;99.90
4518;DHT22;2271;49.464;11.070;2024-02-21T15:49:43;12.30;99.90
4518;DHT22;2271;49.464;11.070;2024-02-21T15:52:08;12.30;99.90